sensor_id;sensor_type;location;lat;lon;timestamp;P1;durP1;ratioP1;P2;durP2;ratioP2
40022;SDS011;25713;-35.352;149.036;2024-02-14T00:01:34;7.20;;;1.30;;
40022;SDS011;25713;-35.352;149.036;2024-02-14T00:04:04;8.10;;;1.60;;
40022;SDS011;25713;-35.352;149.036;2024-02-14T00:06:37;3.38;;;1.58;;
40022;SDS011;25713;-35.352;149.036;2024-02-14T00:09:06;10.85;;;1.70;;
40022;SDS011;25713;-35.352;149.036;2024-02-14T00:11:36;7.15;;;1.67;;
40022;SDS011;25713;-35.352;149.036;2024-02-14T00:14:05;4.60;;;1.40;;
40022;SDS011;25713;-35.352;149.036;2024-02-14T00:16:34;5.18;;;1.80;;
40022;SDS011;25713;-35.352;149.036;2024-02-14T00:19:04;2.58;;;1.38;;
40022;SDS011;25713;-35.352;149.036;2024-02-14T00:21:33;7.03;;;2.15;;
40022;SDS011;25713;-35.352;149.036;2024-02-14T00:24:04;3.43;;;1.70;;
40022;SDS011;25713;-35.352;149.036;2024-02-14T00:26:34;4.32;;;2.00;;
40022;SDS011;25713;-35.352;149.036;2024-02-14T00:29:04;5.07;;;1.50;;
40022;SDS011;25713;-35.352;149.036;2024-02-14T00:31:33;6.85;;;1.90;;
40022;SDS011;25713;-35.352;149.036;2024-02-14T00:34:02;3.45;;;1.70;;
40022;SDS011;25713;-35.352;149.036;2024-02-14T00:36:32;7.45;;;2.20;;
40022;SDS011;25713;-35.352;149.036;2024-02-14T00:39:03;8.95;;;2.10;;
40022;SDS011;25713;-35.352;149.036;2024-02-14T00:41:33;7.90;;;2.05;;
40022;SDS011;25713;-35.352;149.036;2024-02-14T00:44:02;5.45;;;2.10;;
40022;SDS011;25713;-35.352;149.036;2024-02-14T00:46:32;9.90;;;2.58;;
40022;SDS011;25713;-35.352;149.036;2024-02-14T00:49:01;9.18;;;2.40;;
40022;SDS011;25713;-35.352;149.036;2024-02-14T00:51:31;8.18;;;2.35;;
40022;SDS011;25713;-35.352;149.036;2024-02-14T00:54:02;4.63;;;2.45;;
40022;SDS011;25713;-35.352;149.036;2024-02-14T00:56:32;6.05;;;2.15;;
40022;SDS011;25713;-35.352;149.036;2024-02-14T00:59:02;5.07;;;2.40;;
40022;SDS011;25713;-35.352;149.036;2024-02-14T01:01:31;7.47;;;2.63;;
40022;SDS011;25713;-35.352;149.036;2024-02-14T01:04:01;7.28;;;2.72;;
40022;SDS011;25713;-35.352;149.036;2024-02-14T01:06:30;7.53;;;2.80;;
40022;SDS011;25713;-35.352;149.036;2024-02-14T01:09:00;6.75;;;2.30;;
40022;SDS011;25713;-35.352;149.036;2024-02-14T01:11:31;9.02;;;2.63;;
40022;SDS011;25713;-35.352;149.036;2024-02-14T01:14:00;4.65;;;2.85;;
40022;SDS011;25713;-35.352;149.036;2024-02-14T01:16:30;5.90;;;2.75;;
40022;SDS011;25713;-35.352;149.036;2024-02-14T01:18:59;4.82;;;2.83;;
40022;SDS011;25713;-35.352;149.036;2024-02-14T01:21:29;8.45;;;3.05;;
40022;SDS011;25713;-35.352;149.036;2024-02-14T01:23:58;10.13;;;2.50;;
40022;SDS011;25713;-35.352;149.036;2024-02-14T01:26:30;9.10;;;2.90;;
40022;SDS011;25713;-35.352;149.036;2024-02-14T01:29:00;9.00;;;2.97;;
40022;SDS011;25713;-35.352;149.036;2024-02-14T01:31:30;6.57;;;2.70;;
40022;SDS011;25713;-35.352;149.036;2024-02-14T01:34:00;4.90;;;2.72;;
40022;SDS011;25713;-35.352;149.036;2024-02-14T01:36:29;6.72;;;2.70;;
40022;SDS011;25713;-35.352;149.036;2024-02-14T01:38:59;6.65;;;3.38;;
40022;SDS011;25713;-35.352;149.036;2024-02-14T01:41:30;7.18;;;3.20;;
40022;SDS011;25713;-35.352;149.036;2024-02-14T01:43:59;7.60;;;3.13;;
40022;SDS011;25713;-35.352;149.036;2024-02-14T01:46:29;7.57;;;2.80;;
40022;SDS011;25713;-35.352;149.036;2024-02-14T01:48:58;14.02;;;3.15;;
40022;SDS011;25713;-35.352;149.036;2024-02-14T01:51:28;8.38;;;3.00;;
40022;SDS011;25713;-35.352;149.036;2024-02-14T01:53:59;6.97;;;3.15;;
40022;SDS011;25713;-35.352;149.036;2024-02-14T01:56:32;8.77;;;3.50;;
40022;SDS011;25713;-35.352;149.036;2024-02-14T01:59:02;5.10;;;3.17;;
40022;SDS011;25713;-35.352;149.036;2024-02-14T02:01:32;7.68;;;2.80;;
40022;SDS011;25713;-35.352;149.036;2024-02-14T02:04:02;9.85;;;3.45;;
40022;SDS011;25713;-35.352;149.036;2024-02-14T02:06:36;8.93;;;3.55;;
40022;SDS011;25713;-35.352;149.036;2024-02-14T02:09:06;6.53;;;3.20;;
40022;SDS011;25713;-35.352;149.036;2024-02-14T02:11:44;7.45;;;3.50;;
40022;SDS011;25713;-35.352;149.036;2024-02-14T02:14:14;10.63;;;3.30;;
40022;SDS011;25713;-35.352;149.036;2024-02-14T02:16:44;8.02;;;3.40;;
40022;SDS011;25713;-35.352;149.036;2024-02-14T02:19:13;8.15;;;3.47;;
40022;SDS011;25713;-35.352;149.036;2024-02-14T02:21:42;9.98;;;3.38;;
40022;SDS011;25713;-35.352;149.036;2024-02-14T02:24:14;5.57;;;3.60;;
40022;SDS011;25713;-35.352;149.036;2024-02-14T02:26:44;7.60;;;3.83;;
40022;SDS011;25713;-35.352;149.036;2024-02-14T02:29:13;9.07;;;3.83;;
40022;SDS011;25713;-35.352;149.036;2024-02-14T02:31:42;6.22;;;3.70;;
40022;SDS011;25713;-35.352;149.036;2024-02-14T02:34:12;5.82;;;3.75;;
40022;SDS011;25713;-35.352;149.036;2024-02-14T02:36:41;6.60;;;4.07;;
40022;SDS011;25713;-35.352;149.036;2024-02-14T02:39:13;9.70;;;3.60;;
40022;SDS011;25713;-35.352;149.036;2024-02-14T02:41:43;7.97;;;3.97;;
40022;SDS011;25713;-35.352;149.036;2024-02-14T02:44:12;9.00;;;3.97;;
40022;SDS011;25713;-35.352;149.036;2024-02-14T02:46:42;6.70;;;3.92;;
40022;SDS011;25713;-35.352;149.036;2024-02-14T02:49:14;7.80;;;4.30;;
40022;SDS011;25713;-35.352;149.036;2024-02-14T02:51:44;4.95;;;3.92;;
40022;SDS011;25713;-35.352;149.036;2024-02-14T02:54:15;9.27;;;4.18;;
40022;SDS011;25713;-35.352;149.036;2024-02-14T02:56:45;10.23;;;4.15;;
40022;SDS011;25713;-35.352;149.036;2024-02-14T02:59:14;7.38;;;4.00;;
40022;SDS011;25713;-35.352;149.036;2024-02-14T03:01:44;7.38;;;3.90;;
40022;SDS011;25713;-35.352;149.036;2024-02-14T03:04:14;7.18;;;4.15;;
40022;SDS011;25713;-35.352;149.036;2024-02-14T03:06:43;8.82;;;4.65;;
40022;SDS011;25713;-35.352;149.036;2024-02-14T03:09:13;10.82;;;4.18;;
40022;SDS011;25713;-35.352;149.036;2024-02-14T03:11:46;9.35;;;4.20;;
40022;SDS011;25713;-35.352;149.036;2024-02-14T03:14:15;13.43;;;4.03;;
40022;SDS011;25713;-35.352;149.036;2024-02-14T03:16:45;8.57;;;4.03;;
40022;SDS011;25713;-35.352;149.036;2024-02-14T03:19:14;8.07;;;3.92;;
40022;SDS011;25713;-35.352;149.036;2024-02-14T03:21:44;8.45;;;4.03;;
40022;SDS011;25713;-35.352;149.036;2024-02-14T03:24:15;10.68;;;4.35;;
40022;SDS011;25713;-35.352;149.036;2024-02-14T03:26:45;6.80;;;4.20;;
40022;SDS011;25713;-35.352;149.036;2024-02-14T03:29:14;8.13;;;4.43;;
40022;SDS011;25713;-35.352;149.036;2024-02-14T03:31:43;6.03;;;3.95;;
40022;SDS011;25713;-35.352;149.036;2024-02-14T03:34:13;10.23;;;4.07;;
40022;SDS011;25713;-35.352;149.036;2024-02-14T03:36:42;6.90;;;4.32;;
40022;SDS011;25713;-35.352;149.036;2024-02-14T03:39:12;6.22;;;4.30;;
40022;SDS011;25713;-35.352;149.036;2024-02-14T03:41:43;12.90;;;4.60;;
40022;SDS011;25713;-35.352;149.036;2024-02-14T03:44:13;7.53;;;4.45;;
40022;SDS011;25713;-35.352;149.036;2024-02-14T03:46:43;7.10;;;4.05;;
40022;SDS011;25713;-35.352;149.036;2024-02-14T03:49:12;11.05;;;4.50;;
40022;SDS011;25713;-35.352;149.036;2024-02-14T03:51:42;11.80;;;4.18;;
40022;SDS011;25713;-35.352;149.036;2024-02-14T03:54:11;6.72;;;3.90;;
40022;SDS011;25713;-35.352;149.036;2024-02-14T03:56:42;9.75;;;3.97;;
40022;SDS011;25713;-35.352;149.036;2024-02-14T03:59:12;7.15;;;4.57;;
40022;SDS011;25713;-35.352;149.036;2024-02-14T04:01:44;8.02;;;4.20;;
40022;SDS011;25713;-35.352;149.036;2024-02-14T04:04:13;9.85;;;4.35;;
40022;SDS011;25713;-35.352;149.036;2024-02-14T04:06:43;6.00;;;3.80;;
40022;SDS011;25713;-35.352;149.036;2024-02-14T04:09:12;4.93;;;3.88;;
40022;SDS011;25713;-35.352;149.036;2024-02-14T04:11:44;7.45;;;4.05;;
40022;SDS011;25713;-35.352;149.036;2024-02-14T04:14:13;7.43;;;3.90;;
40022;SDS011;25713;-35.352;149.036;2024-02-14T04:16:43;13.23;;;4.10;;
40022;SDS011;25713;-35.352;149.036;2024-02-14T04:19:13;10.40;;;4.40;;
40022;SDS011;25713;-35.352;149.036;2024-02-14T04:21:43;9.27;;;3.88;;
40022;SDS011;25713;-35.352;149.036;2024-02-14T04:24:12;7.55;;;4.20;;
40022;SDS011;25713;-35.352;149.036;2024-02-14T04:26:43;10.50;;;3.88;;
40022;SDS011;25713;-35.352;149.036;2024-02-14T04:29:13;6.70;;;4.25;;
40022;SDS011;25713;-35.352;149.036;2024-02-14T04:31:42;7.90;;;4.18;;
40022;SDS011;25713;-35.352;149.036;2024-02-14T04:34:12;7.28;;;4.28;;
40022;SDS011;25713;-35.352;149.036;2024-02-14T04:36:41;7.68;;;3.90;;
40022;SDS011;25713;-35.352;149.036;2024-02-14T04:39:11;9.63;;;4.20;;
40022;SDS011;25713;-35.352;149.036;2024-02-14T04:41:40;8.02;;;4.05;;
40022;SDS011;25713;-35.352;149.036;2024-02-14T04:44:12;9.98;;;4.20;;
40022;SDS011;25713;-35.352;149.036;2024-02-14T04:46:41;7.70;;;4.22;;
40022;SDS011;25713;-35.352;149.036;2024-02-14T04:49:11;8.90;;;4.50;;
40022;SDS011;25713;-35.352;149.036;2024-02-14T04:51:40;8.35;;;3.90;;
40022;SDS011;25713;-35.352;149.036;2024-02-14T04:54:10;8.27;;;4.03;;
40022;SDS011;25713;-35.352;149.036;2024-02-14T04:56:39;8.35;;;3.78;;
40022;SDS011;25713;-35.352;149.036;2024-02-14T04:59:10;9.70;;;3.90;;
40022;SDS011;25713;-35.352;149.036;2024-02-14T05:01:40;7.72;;;4.00;;
40022;SDS011;25713;-35.352;149.036;2024-02-14T05:04:09;13.07;;;4.40;;
40022;SDS011;25713;-35.352;149.036;2024-02-14T05:06:39;9.02;;;4.38;;
40022;SDS011;25713;-35.352;149.036;2024-02-14T05:09:08;6.55;;;4.10;;
40022;SDS011;25713;-35.352;149.036;2024-02-14T05:11:38;11.45;;;4.03;;
40022;SDS011;25713;-35.352;149.036;2024-02-14T05:14:07;9.90;;;4.35;;
40022;SDS011;25713;-35.352;149.036;2024-02-14T05:16:39;6.78;;;4.10;;
40022;SDS011;25713;-35.352;149.036;2024-02-14T05:19:08;8.40;;;4.10;;
40022;SDS011;25713;-35.352;149.036;2024-02-14T05:21:38;7.93;;;4.10;;
40022;SDS011;25713;-35.352;149.036;2024-02-14T05:24:07;5.88;;;3.58;;
40022;SDS011;25713;-35.352;149.036;2024-02-14T05:26:37;8.65;;;3.95;;
40022;SDS011;25713;-35.352;149.036;2024-02-14T05:29:06;7.57;;;3.90;;
40022;SDS011;25713;-35.352;149.036;2024-02-14T05:31:44;7.82;;;3.67;;
40022;SDS011;25713;-35.352;149.036;2024-02-14T05:34:14;7.70;;;3.80;;
40022;SDS011;25713;-35.352;149.036;2024-02-14T05:36:44;13.02;;;3.90;;
40022;SDS011;25713;-35.352;149.036;2024-02-14T05:39:13;5.15;;;3.15;;
40022;SDS011;25713;-35.352;149.036;2024-02-14T05:41:43;14.75;;;3.55;;
40022;SDS011;25713;-35.352;149.036;2024-02-14T05:44:12;7.13;;;3.70;;
40022;SDS011;25713;-35.352;149.036;2024-02-14T05:46:41;8.95;;;3.60;;
40022;SDS011;25713;-35.352;149.036;2024-02-14T05:49:13;11.13;;;3.47;;
40022;SDS011;25713;-35.352;149.036;2024-02-14T05:51:42;7.05;;;3.45;;
40022;SDS011;25713;-35.352;149.036;2024-02-14T05:54:12;6.78;;;3.55;;
40022;SDS011;25713;-35.352;149.036;2024-02-14T05:56:41;6.13;;;3.60;;
40022;SDS011;25713;-35.352;149.036;2024-02-14T05:59:11;8.50;;;3.22;;
40022;SDS011;25713;-35.352;149.036;2024-02-14T06:01:40;8.85;;;3.03;;
40022;SDS011;25713;-35.352;149.036;2024-02-14T06:04:11;4.72;;;2.92;;
40022;SDS011;25713;-35.352;149.036;2024-02-14T06:06:41;9.10;;;3.47;;
40022;SDS011;25713;-35.352;149.036;2024-02-14T06:09:10;9.13;;;3.35;;
40022;SDS011;25713;-35.352;149.036;2024-02-14T06:11:40;7.72;;;3.45;;
40022;SDS011;25713;-35.352;149.036;2024-02-14T06:14:09;6.68;;;2.97;;
40022;SDS011;25713;-35.352;149.036;2024-02-14T06:16:39;5.20;;;3.08;;
40022;SDS011;25713;-35.352;149.036;2024-02-14T06:19:08;6.55;;;2.80;;
40022;SDS011;25713;-35.352;149.036;2024-02-14T06:21:39;7.15;;;2.92;;
40022;SDS011;25713;-35.352;149.036;2024-02-14T06:24:09;6.28;;;3.10;;
40022;SDS011;25713;-35.352;149.036;2024-02-14T06:26:39;6.85;;;3.08;;
40022;SDS011;25713;-35.352;149.036;2024-02-14T06:29:08;7.60;;;2.75;;
40022;SDS011;25713;-35.352;149.036;2024-02-14T06:31:38;10.27;;;2.70;;
40022;SDS011;25713;-35.352;149.036;2024-02-14T06:34:07;9.60;;;3.08;;
40022;SDS011;25713;-35.352;149.036;2024-02-14T06:36:39;7.90;;;2.97;;
40022;SDS011;25713;-35.352;149.036;2024-02-14T06:39:08;7.07;;;2.83;;
40022;SDS011;25713;-35.352;149.036;2024-02-14T06:41:38;6.38;;;2.63;;
40022;SDS011;25713;-35.352;149.036;2024-02-14T06:44:07;8.45;;;2.50;;
40022;SDS011;25713;-35.352;149.036;2024-02-14T06:46:37;8.10;;;2.65;;
40022;SDS011;25713;-35.352;149.036;2024-02-14T06:49:06;5.55;;;2.38;;
40022;SDS011;25713;-35.352;149.036;2024-02-14T06:51:36;6.13;;;2.30;;
40022;SDS011;25713;-35.352;149.036;2024-02-14T06:54:07;4.53;;;2.40;;
40022;SDS011;25713;-35.352;149.036;2024-02-14T06:56:37;7.50;;;2.42;;
40022;SDS011;25713;-35.352;149.036;2024-02-14T06:59:06;8.45;;;2.35;;
40022;SDS011;25713;-35.352;149.036;2024-02-14T07:01:36;7.32;;;2.55;;
40022;SDS011;25713;-35.352;149.036;2024-02-14T07:04:06;7.93;;;2.40;;
40022;SDS011;25713;-35.352;149.036;2024-02-14T07:06:35;5.78;;;2.70;;
40022;SDS011;25713;-35.352;149.036;2024-02-14T07:09:07;9.30;;;2.80;;
40022;SDS011;25713;-35.352;149.036;2024-02-14T07:11:36;7.38;;;2.22;;
40022;SDS011;25713;-35.352;149.036;2024-02-14T07:14:06;6.65;;;2.42;;
40022;SDS011;25713;-35.352;149.036;2024-02-14T07:16:35;6.60;;;2.45;;
40022;SDS011;25713;-35.352;149.036;2024-02-14T07:19:05;6.63;;;2.40;;
40022;SDS011;25713;-35.352;149.036;2024-02-14T07:21:34;5.75;;;2.28;;
40022;SDS011;25713;-35.352;149.036;2024-02-14T07:24:04;3.97;;;2.13;;
40022;SDS011;25713;-35.352;149.036;2024-02-14T07:26:36;5.78;;;1.95;;
40022;SDS011;25713;-35.352;149.036;2024-02-14T07:29:05;8.63;;;2.00;;
40022;SDS011;25713;-35.352;149.036;2024-02-14T07:31:35;9.60;;;2.35;;
40022;SDS011;25713;-35.352;149.036;2024-02-14T07:34:04;6.32;;;2.28;;
40022;SDS011;25713;-35.352;149.036;2024-02-14T07:36:34;5.30;;;1.95;;
40022;SDS011;25713;-35.352;149.036;2024-02-14T07:39:03;7.53;;;2.42;;
40022;SDS011;25713;-35.352;149.036;2024-02-14T07:41:35;4.22;;;2.05;;
40022;SDS011;25713;-35.352;149.036;2024-02-14T07:46:33;6.53;;;1.60;;
40022;SDS011;25713;-35.352;149.036;2024-02-14T07:49:02;6.88;;;2.00;;
40022;SDS011;25713;-35.352;149.036;2024-02-14T07:51:32;4.82;;;1.60;;
40022;SDS011;25713;-35.352;149.036;2024-02-14T07:54:01;6.30;;;1.80;;
40022;SDS011;25713;-35.352;149.036;2024-02-14T07:56:31;6.07;;;1.50;;
40022;SDS011;25713;-35.352;149.036;2024-02-14T07:59:02;6.43;;;1.83;;
40022;SDS011;25713;-35.352;149.036;2024-02-14T08:01:32;4.53;;;1.55;;
40022;SDS011;25713;-35.352;149.036;2024-02-14T08:04:01;3.47;;;1.40;;
40022;SDS011;25713;-35.352;149.036;2024-02-14T08:06:31;2.08;;;1.30;;
40022;SDS011;25713;-35.352;149.036;2024-02-14T08:09:00;2.50;;;1.45;;
40022;SDS011;25713;-35.352;149.036;2024-02-14T08:11:30;5.82;;;1.63;;
40022;SDS011;25713;-35.352;149.036;2024-02-14T08:14:01;6.07;;;1.48;;
40022;SDS011;25713;-35.352;149.036;2024-02-14T08:16:31;3.13;;;1.40;;
40022;SDS011;25713;-35.352;149.036;2024-02-14T08:19:01;4.57;;;1.48;;
40022;SDS011;25713;-35.352;149.036;2024-02-14T08:21:30;4.40;;;1.42;;
40022;SDS011;25713;-35.352;149.036;2024-02-14T08:24:00;1.95;;;1.30;;
40022;SDS011;25713;-35.352;149.036;2024-02-14T08:26:29;2.78;;;1.30;;
40022;SDS011;25713;-35.352;149.036;2024-02-14T08:28:59;2.55;;;1.20;;
40022;SDS011;25713;-35.352;149.036;2024-02-14T08:31:30;5.68;;;1.20;;
40022;SDS011;25713;-35.352;149.036;2024-02-14T08:34:00;2.42;;;1.05;;
40022;SDS011;25713;-35.352;149.036;2024-02-14T08:36:30;3.97;;;1.10;;
40022;SDS011;25713;-35.352;149.036;2024-02-14T08:38:59;2.67;;;1.00;;
40022;SDS011;25713;-35.352;149.036;2024-02-14T08:41:29;2.08;;;0.95;;
40022;SDS011;25713;-35.352;149.036;2024-02-14T08:43:58;2.65;;;1.00;;
40022;SDS011;25713;-35.352;149.036;2024-02-14T08:46:29;4.63;;;1.20;;
40022;SDS011;25713;-35.352;149.036;2024-02-14T08:48:59;4.22;;;1.13;;
40022;SDS011;25713;-35.352;149.036;2024-02-14T08:51:29;2.28;;;0.80;;
40022;SDS011;25713;-35.352;149.036;2024-02-14T08:53:59;1.17;;;0.80;;
40022;SDS011;25713;-35.352;149.036;2024-02-14T08:56:29;1.90;;;0.73;;
40022;SDS011;25713;-35.352;149.036;2024-02-14T08:58:59;1.85;;;0.80;;
40022;SDS011;25713;-35.352;149.036;2024-02-14T09:01:30;0.80;;;0.70;;
40022;SDS011;25713;-35.352;149.036;2024-02-14T09:04:00;1.17;;;0.70;;
40022;SDS011;25713;-35.352;149.036;2024-02-14T09:06:29;0.75;;;0.60;;
40022;SDS011;25713;-35.352;149.036;2024-02-14T09:08:59;0.60;;;0.60;;
40022;SDS011;25713;-35.352;149.036;2024-02-14T09:11:29;0.90;;;0.70;;
40022;SDS011;25713;-35.352;149.036;2024-02-14T09:13:58;2.35;;;0.63;;
40022;SDS011;25713;-35.352;149.036;2024-02-14T09:16:28;1.73;;;0.60;;
40022;SDS011;25713;-35.352;149.036;2024-02-14T09:19:00;1.55;;;0.50;;
40022;SDS011;25713;-35.352;149.036;2024-02-14T09:21:29;2.17;;;0.60;;
40022;SDS011;25713;-35.352;149.036;2024-02-14T09:23:59;0.98;;;0.50;;
40022;SDS011;25713;-35.352;149.036;2024-02-14T09:26:32;1.13;;;0.50;;
40022;SDS011;25713;-35.352;149.036;2024-02-14T09:29:02;1.05;;;0.50;;
40022;SDS011;25713;-35.352;149.036;2024-02-14T09:31:33;1.40;;;0.60;;
40022;SDS011;25713;-35.352;149.036;2024-02-14T09:34:03;0.68;;;0.40;;
40022;SDS011;25713;-35.352;149.036;2024-02-14T09:36:32;0.50;;;0.40;;
40022;SDS011;25713;-35.352;149.036;2024-02-14T09:39:02;0.50;;;0.40;;
40022;SDS011;25713;-35.352;149.036;2024-02-14T09:41:31;0.75;;;0.47;;
40022;SDS011;25713;-35.352;149.036;2024-02-14T09:44:08;0.57;;;0.40;;
40022;SDS011;25713;-35.352;149.036;2024-02-14T09:46:39;1.30;;;0.40;;
40022;SDS011;25713;-35.352;149.036;2024-02-14T09:51:37;0.68;;;0.32;;
40022;SDS011;25713;-35.352;149.036;2024-02-14T09:54:12;0.57;;;0.50;;
40022;SDS011;25713;-35.352;149.036;2024-02-14T09:56:43;0.82;;;0.30;;
40022;SDS011;25713;-35.352;149.036;2024-02-14T09:59:17;0.45;;;0.30;;
40022;SDS011;25713;-35.352;149.036;2024-02-14T10:01:49;0.40;;;0.35;;
40022;SDS011;25713;-35.352;149.036;2024-02-14T10:04:19;1.75;;;0.30;;
40022;SDS011;25713;-35.352;149.036;2024-02-14T10:06:49;0.30;;;0.30;;
40022;SDS011;25713;-35.352;149.036;2024-02-14T10:09:20;0.77;;;0.40;;
40022;SDS011;25713;-35.352;149.036;2024-02-14T10:11:49;0.30;;;0.30;;
40022;SDS011;25713;-35.352;149.036;2024-02-14T10:14:19;0.65;;;0.30;;
40022;SDS011;25713;-35.352;149.036;2024-02-14T10:16:52;0.30;;;0.30;;
40022;SDS011;25713;-35.352;149.036;2024-02-14T10:19:22;0.43;;;0.40;;
40022;SDS011;25713;-35.352;149.036;2024-02-14T10:21:57;0.40;;;0.40;;
40022;SDS011;25713;-35.352;149.036;2024-02-14T10:24:27;0.50;;;0.38;;
40022;SDS011;25713;-35.352;149.036;2024-02-14T10:26:58;0.52;;;0.30;;
40022;SDS011;25713;-35.352;149.036;2024-02-14T10:29:28;1.20;;;0.30;;
40022;SDS011;25713;-35.352;149.036;2024-02-14T10:31:59;1.38;;;0.30;;
40022;SDS011;25713;-35.352;149.036;2024-02-14T10:34:28;0.75;;;0.30;;
40022;SDS011;25713;-35.352;149.036;2024-02-14T10:39:29;0.55;;;0.30;;
40022;SDS011;25713;-35.352;149.036;2024-02-14T10:41:59;1.65;;;0.40;;
40022;SDS011;25713;-35.352;149.036;2024-02-14T10:44:28;1.98;;;0.40;;
40022;SDS011;25713;-35.352;149.036;2024-02-14T10:46:59;1.38;;;0.35;;
40022;SDS011;25713;-35.352;149.036;2024-02-14T10:49:37;0.55;;;0.40;;
40022;SDS011;25713;-35.352;149.036;2024-02-14T10:52:08;1.83;;;0.30;;
40022;SDS011;25713;-35.352;149.036;2024-02-14T10:54:38;0.30;;;0.30;;
40022;SDS011;25713;-35.352;149.036;2024-02-14T10:57:11;0.80;;;0.40;;
40022;SDS011;25713;-35.352;149.036;2024-02-14T10:59:43;1.13;;;0.40;;
40022;SDS011;25713;-35.352;149.036;2024-02-14T11:02:15;0.30;;;0.30;;
40022;SDS011;25713;-35.352;149.036;2024-02-14T11:04:46;0.32;;;0.30;;
40022;SDS011;25713;-35.352;149.036;2024-02-14T11:07:16;0.30;;;0.30;;
40022;SDS011;25713;-35.352;149.036;2024-02-14T11:09:47;0.60;;;0.30;;
40022;SDS011;25713;-35.352;149.036;2024-02-14T11:12:27;0.20;;;0.20;;
40022;SDS011;25713;-35.352;149.036;2024-02-14T11:15:01;0.28;;;0.28;;
40022;SDS011;25713;-35.352;149.036;2024-02-14T11:17:39;0.20;;;0.20;;
40022;SDS011;25713;-35.352;149.036;2024-02-14T11:20:18;0.40;;;0.40;;
40022;SDS011;25713;-35.352;149.036;2024-02-14T11:22:56;0.30;;;0.30;;
40022;SDS011;25713;-35.352;149.036;2024-02-14T11:25:28;0.30;;;0.30;;
40022;SDS011;25713;-35.352;149.036;2024-02-14T11:27:59;0.10;;;0.10;;
40022;SDS011;25713;-35.352;149.036;2024-02-14T11:30:43;0.90;;;0.30;;
40022;SDS011;25713;-35.352;149.036;2024-02-14T11:33:20;0.25;;;0.25;;
40022;SDS011;25713;-35.352;149.036;2024-02-14T11:35:50;0.28;;;0.13;;
40022;SDS011;25713;-35.352;149.036;2024-02-14T11:38:21;0.15;;;0.15;;
40022;SDS011;25713;-35.352;149.036;2024-02-14T11:40:53;0.20;;;0.20;;
40022;SDS011;25713;-35.352;149.036;2024-02-14T11:43:22;0.28;;;0.28;;
40022;SDS011;25713;-35.352;149.036;2024-02-14T11:45:52;0.10;;;0.10;;
40022;SDS011;25713;-35.352;149.036;2024-02-14T11:48:24;0.30;;;0.20;;
40022;SDS011;25713;-35.352;149.036;2024-02-14T11:50:53;0.20;;;0.20;;
40022;SDS011;25713;-35.352;149.036;2024-02-14T11:53:23;0.30;;;0.30;;
40022;SDS011;25713;-35.352;149.036;2024-02-14T11:55:52;0.82;;;0.30;;
40022;SDS011;25713;-35.352;149.036;2024-02-14T11:58:23;0.20;;;0.20;;
40022;SDS011;25713;-35.352;149.036;2024-02-14T12:00:52;0.65;;;0.20;;
40022;SDS011;25713;-35.352;149.036;2024-02-14T12:03:25;0.20;;;0.20;;
40022;SDS011;25713;-35.352;149.036;2024-02-14T12:05:55;0.20;;;0.20;;
40022;SDS011;25713;-35.352;149.036;2024-02-14T12:08:25;1.02;;;0.25;;
40022;SDS011;25713;-35.352;149.036;2024-02-14T12:10:55;1.05;;;0.30;;
40022;SDS011;25713;-35.352;149.036;2024-02-14T12:13:25;0.30;;;0.30;;
40022;SDS011;25713;-35.352;149.036;2024-02-14T12:15:55;0.17;;;0.17;;
40022;SDS011;25713;-35.352;149.036;2024-02-14T12:18:26;0.20;;;0.20;;
40022;SDS011;25713;-35.352;149.036;2024-02-14T12:21:03;0.30;;;0.30;;
40022;SDS011;25713;-35.352;149.036;2024-02-14T12:23:33;0.20;;;0.20;;
40022;SDS011;25713;-35.352;149.036;2024-02-14T12:26:03;0.57;;;0.20;;
40022;SDS011;25713;-35.352;149.036;2024-02-14T12:28:33;0.28;;;0.17;;
40022;SDS011;25713;-35.352;149.036;2024-02-14T12:31:03;0.73;;;0.73;;
40022;SDS011;25713;-35.352;149.036;2024-02-14T12:33:35;0.22;;;0.20;;
40022;SDS011;25713;-35.352;149.036;2024-02-14T12:36:06;0.30;;;0.30;;
40022;SDS011;25713;-35.352;149.036;2024-02-14T12:38:35;0.32;;;0.25;;
40022;SDS011;25713;-35.352;149.036;2024-02-14T12:41:05;0.20;;;0.20;;
40022;SDS011;25713;-35.352;149.036;2024-02-14T12:43:34;0.15;;;0.15;;
40022;SDS011;25713;-35.352;149.036;2024-02-14T12:46:04;2.35;;;0.30;;
40022;SDS011;25713;-35.352;149.036;2024-02-14T12:48:35;0.30;;;0.20;;
40022;SDS011;25713;-35.352;149.036;2024-02-14T12:51:05;0.32;;;0.20;;
40022;SDS011;25713;-35.352;149.036;2024-02-14T12:53:34;0.20;;;0.20;;
40022;SDS011;25713;-35.352;149.036;2024-02-14T12:56:04;0.20;;;0.20;;
40022;SDS011;25713;-35.352;149.036;2024-02-14T12:58:34;0.57;;;0.22;;
40022;SDS011;25713;-35.352;149.036;2024-02-14T13:01:04;0.20;;;0.20;;
40022;SDS011;25713;-35.352;149.036;2024-02-14T13:03:36;0.30;;;0.20;;
40022;SDS011;25713;-35.352;149.036;2024-02-14T13:06:05;0.63;;;0.10;;
40022;SDS011;25713;-35.352;149.036;2024-02-14T13:08:35;0.10;;;0.10;;
40022;SDS011;25713;-35.352;149.036;2024-02-14T13:11:04;0.10;;;0.10;;
40022;SDS011;25713;-35.352;149.036;2024-02-14T13:13:34;0.25;;;0.20;;
40022;SDS011;25713;-35.352;149.036;2024-02-14T13:16:04;0.20;;;0.20;;
40022;SDS011;25713;-35.352;149.036;2024-02-14T13:18:37;0.20;;;0.20;;
40022;SDS011;25713;-35.352;149.036;2024-02-14T13:21:07;0.20;;;0.20;;
40022;SDS011;25713;-35.352;149.036;2024-02-14T13:23:36;0.20;;;0.20;;
40022;SDS011;25713;-35.352;149.036;2024-02-14T13:26:06;1.08;;;0.40;;
40022;SDS011;25713;-35.352;149.036;2024-02-14T13:28:35;0.40;;;0.20;;
40022;SDS011;25713;-35.352;149.036;2024-02-14T13:31:05;0.20;;;0.20;;
40022;SDS011;25713;-35.352;149.036;2024-02-14T13:33:36;0.85;;;0.20;;
40022;SDS011;25713;-35.352;149.036;2024-02-14T13:36:06;0.10;;;0.10;;
40022;SDS011;25713;-35.352;149.036;2024-02-14T13:38:35;0.20;;;0.20;;
40022;SDS011;25713;-35.352;149.036;2024-02-14T13:41:05;0.10;;;0.10;;
40022;SDS011;25713;-35.352;149.036;2024-02-14T13:43:34;0.20;;;0.20;;
40022;SDS011;25713;-35.352;149.036;2024-02-14T13:46:04;0.20;;;0.20;;
40022;SDS011;25713;-35.352;149.036;2024-02-14T13:48:33;0.10;;;0.10;;
40022;SDS011;25713;-35.352;149.036;2024-02-14T13:51:05;0.17;;;0.17;;
40022;SDS011;25713;-35.352;149.036;2024-02-14T13:53:34;1.17;;;0.20;;
40022;SDS011;25713;-35.352;149.036;2024-02-14T13:56:04;0.10;;;0.10;;
40022;SDS011;25713;-35.352;149.036;2024-02-14T13:58:34;0.30;;;0.30;;
40022;SDS011;25713;-35.352;149.036;2024-02-14T14:01:04;0.20;;;0.20;;
40022;SDS011;25713;-35.352;149.036;2024-02-14T14:03:33;0.10;;;0.10;;
40022;SDS011;25713;-35.352;149.036;2024-02-14T14:06:05;0.10;;;0.10;;
40022;SDS011;25713;-35.352;149.036;2024-02-14T14:08:36;0.20;;;0.20;;
40022;SDS011;25713;-35.352;149.036;2024-02-14T14:11:06;0.10;;;0.10;;
40022;SDS011;25713;-35.352;149.036;2024-02-14T14:13:35;0.10;;;0.10;;
40022;SDS011;25713;-35.352;149.036;2024-02-14T14:16:05;0.10;;;0.10;;
40022;SDS011;25713;-35.352;149.036;2024-02-14T14:18:38;0.65;;;0.30;;
40022;SDS011;25713;-35.352;149.036;2024-02-14T14:21:07;0.28;;;0.20;;
40022;SDS011;25713;-35.352;149.036;2024-02-14T14:23:37;0.15;;;0.15;;
40022;SDS011;25713;-35.352;149.036;2024-02-14T14:26:06;0.50;;;0.20;;
40022;SDS011;25713;-35.352;149.036;2024-02-14T14:28:36;0.45;;;0.25;;
40022;SDS011;25713;-35.352;149.036;2024-02-14T14:31:06;0.38;;;0.13;;
40022;SDS011;25713;-35.352;149.036;2024-02-14T14:33:37;0.30;;;0.13;;